Aviation Digital Data Service (ADDS)

Output produced by METARs form (1453 UTC 18 August 2019)
found at http://www.aviationweather.gov/metar/data/
 
LFRN 181430Z AUTO 24007KT 190V290 CAVOK 22/11 Q1011 TEMPO SHRA BKN020TCU
TAF LFRN 181100Z 1812/1912 27012KT 9999 BKN030 
     PROB30 
     TEMPO 1815/1819 5000 SHRA BKN020TCU 
     BECMG 1818/1820 24006KT 
     TEMPO 1900/1906 3000 BR 
     TEMPO 1903/1906 BKN003 
     PROB40 
     TEMPO 1903/1906 0500 FG VV///